Norse Mersey — IBEN — position and weather

sailwx.info

Track history (hours):
 
Tides and Currents Weather Stations Pressure Air Temp Water Temp Dewpoint Dewpoint Depression Visibility Wind Speed Wind Dir Waves Ship Positions

Norse Mersey

Operator: Norse Merchant Ferries

Last reported at 2014-Sep-15 14:07 UTC. Time now 2014-Sep-16 00:54 UTC.
Position N 36°25' E 015°05'.

Length 175 m; draft 5.4 m.

Type: Ship (hazmat cat A). MMSI: 247026000.

Date/timePositionNaut miles runAvg speedWind from/ knotsBaromVisibWave heightAir tempDewpointWater temp
2014-Sep-15 14:07N 36°25' E 015°05'916.2
2014-Sep-15 13:33N 36°18' E 014°57'1616.2
2014-Sep-15 12:33N 36°06' E 014°44'1615.7
2014-Sep-15 11:33N 35°54' E 014°31'1 0.8
2014-Sep-15 10:28N 35°53' E 014°31'1 0.1
2014-Sep-15 01:08N 35°54' E 014°31'7 8.9
2014-Sep-15 00:23N 35°59' E 014°37'246 8.7
2014-Sep-13 20:07N 40°04' E 014°47'1315.1
2014-Sep-13 19:13N 40°17' E 014°43'1015.3
2014-Sep-13 18:33N 40°28' E 014°43'7 0.7
2014-Sep-13 08:23N 40°34' E 014°43'13 0.4
2014-Sep-12 00:03N 40°22' E 014°44'815.9
2014-Sep-11 23:33N 40°30' E 014°43'6 0.7
2014-Sep-11 15:20N 40°24' E 014°44'129 7.6
2014-Sep-10 22:24N 38°23' E 015°40'1011.3
2014-Sep-10 21:33N 38°13' E 015°37'142 5.5
2014-Sep-09 19:33N 40°29' E 014°43'273 5.9
2014-Sep-07 21:32N 35°56' E 014°34'1615.9
2014-Sep-07 20:31N 36°08' E 014°47'1516.0
2014-Sep-07 19:33N 36°20' E 014°60'  
Track history (hours):
 
Tides and Currents Weather Stations Pressure Air Temp Water Temp Dewpoint Dewpoint Depression Visibility Wind Speed Wind Dir Waves Ship Positions

Norse Mersey

Operator: Norse Merchant Ferries

Last reported at 2014-Sep-15 14:07 UTC. Time now 2014-Sep-16 00:54 UTC.
Position N 36°25' E 015°05'.

Length 175 m; draft 5.4 m.

Type: Ship (hazmat cat A). MMSI: 247026000.

Date/timePositionNaut miles runAvg speedWind from/ knotsBaromVisibWave heightAir tempDewpointWater temp
2014-Sep-15 14:07N 36°25' E 015°05'916.2
2014-Sep-15 13:33N 36°18' E 014°57'1616.2
2014-Sep-15 12:33N 36°06' E 014°44'1615.7
2014-Sep-15 11:33N 35°54' E 014°31'1 0.8
2014-Sep-15 10:28N 35°53' E 014°31'1 0.1
2014-Sep-15 01:08N 35°54' E 014°31'7 8.9
2014-Sep-15 00:23N 35°59' E 014°37'246 8.7
2014-Sep-13 20:07N 40°04' E 014°47'1315.1
2014-Sep-13 19:13N 40°17' E 014°43'1015.3
2014-Sep-13 18:33N 40°28' E 014°43'7 0.7
2014-Sep-13 08:23N 40°34' E 014°43'13 0.4
2014-Sep-12 00:03N 40°22' E 014°44'815.9
2014-Sep-11 23:33N 40°30' E 014°43'6 0.7
2014-Sep-11 15:20N 40°24' E 014°44'129 7.6
2014-Sep-10 22:24N 38°23' E 015°40'1011.3
2014-Sep-10 21:33N 38°13' E 015°37'142 5.5
2014-Sep-09 19:33N 40°29' E 014°43'273 5.9
2014-Sep-07 21:32N 35°56' E 014°34'1615.9
2014-Sep-07 20:31N 36°08' E 014°47'1516.0
2014-Sep-07 19:33N 36°20' E 014°60'  

Dump ship's entire track history